Echola, Alabama
Current Conditions -  °F | °C
As of 9:53 PM on Tuesday 21 Oct 2014 (Local Time) from KTCL Reporting Station
Clear Clear  
Wind Chill: 16°   Ceiling: Unl
Heat Index: 16°   Visibility: 10mi
Dew Point:   Wind: 8mph
Humidity: 67%   Direction: 10°N
Pressure: 30.05"   Gusts: NA
Location:  33.34°N, 87.79°W
Report Text: KTCL 220253Z 01007KT 10SM CLR 16/09 A3005 RMK AO2 SLP175 T01560094 53015
Loading
Personal Weather Stations






























Interactive Weather Map
Tropical Storm Tracking
New forecast layout! Learn more

10-Day Weather Forecast

Advertisements
Track Severe Weather on mobile